Briefing drone pour Tullins

Rechercher une autre localisation

Conditions de vol :


Nous sommes le : Dimanche 24 octobre 2021
Il est 00:27 UTC (02:27 LT)

Lever de soleil : 05:39 UTC (07:39 LT)
Coucher de soleil : 17:04 UTC (19:04 LT)

Météo

L'essentiel des conditions de vol

VIGILANCE MÉTÉO FRANCE - Isère (38)
Pas de vigilances particulieres
CARTE TEMSI
CARTES DES FRONTS
METAR de LFLS
LFLS 240000Z AUTO 11004KT CAVOK 01/00 Q1025

Date d'émission: 24/10/2021
Heure d'émission: 00:00 UTC
Vent: 110° pour 4 KT (7 km/h)
Visibilité horizontale: > 10 km
Plafond : Plafond et visibilité OK (CAVOK)
Température: 1 °C
Point de rosée: 0 °C
Humidité: 93%
Pression (QNH): 1025 hPa
TAF de LFLS
LFLS 231907Z 2319/2415 CNL

Conditions prévues :

Heure d'émission : Bulletin éffectué le 23 à 19:00 UTC
Prévision : Valide du 23 a 19:00 UTC au 24 a 15:00 UTC
Nuages : à 0ft (0 m)
WEBCAM POUR TULLINS

Réglementation

Voler en sécurité

CARTES AERONAUTIQUE 1/500.000
CARTES VAC (LFLS)
SUP AIP




Chargement des AIP...
NOTAM (TULLINS + Terrain à proximité / FIR )




Chargement des NOTAMS...
CONTACT PREFECTURE 38


Avertissement : Les données mises à disposition sont indicatives. Oxygène Drone ne pourra être tenu responsable de dégâts causés aux biens et aux personnes.